createdAt,value
2018-12-20T00:00:43.137Z,18.5
2018-12-20T00:01:43.242Z,18.5
2018-12-20T00:02:43.064Z,18.5
2018-12-20T00:03:43.764Z,18.5
2018-12-20T00:04:44.471Z,18.5
2018-12-20T00:05:43.527Z,18.5
2018-12-20T00:06:43.246Z,18.5
2018-12-20T00:07:43.200Z,18.5
2018-12-20T00:08:43.240Z,18.5
2018-12-20T00:09:43.474Z,18.5
2018-12-20T00:10:43.037Z,18.5
2018-12-20T00:11:42.958Z,18.5
2018-12-20T00:12:43.810Z,18.5
2018-12-20T00:13:43.675Z,18.5
2018-12-20T00:14:43.368Z,18.5
2018-12-20T00:15:43.261Z,18.5
2018-12-20T00:16:43.240Z,18.5
2018-12-20T00:17:43.135Z,18.5
2018-12-20T00:18:43.004Z,18.5
2018-12-20T00:19:43.266Z,18.5
2018-12-20T00:20:43.494Z,18.5
2018-12-20T00:21:43.138Z,18.5
2018-12-20T00:22:43.177Z,18.5
2018-12-20T00:23:43.577Z,18.5
2018-12-20T00:24:44.006Z,18.5
2018-12-20T00:25:43.166Z,18.5
2018-12-20T00:26:43.257Z,18.5
2018-12-20T00:27:43.169Z,18.5
2018-12-20T00:28:43.324Z,18.5
2018-12-20T00:29:43.329Z,18.5
2018-12-20T00:30:43.204Z,18.5
2018-12-20T00:31:43.055Z,18.5
2018-12-20T00:32:43.227Z,18.5
2018-12-20T00:33:43.478Z,18.5
2018-12-20T00:34:43.122Z,18.5
2018-12-20T00:35:43.314Z,18.5
2018-12-20T00:36:43.059Z,18.5
2018-12-20T00:37:43.300Z,18.25
2018-12-20T00:38:43.255Z,18.5
2018-12-20T00:39:43.373Z,18.25
2018-12-20T00:40:43.812Z,18.25
2018-12-20T00:41:43.386Z,18.25
2018-12-20T00:42:42.983Z,18.25
2018-12-20T00:43:43.250Z,18.25
2018-12-20T00:44:43.088Z,18.25
2018-12-20T00:45:43.104Z,18.25
2018-12-20T00:46:43.095Z,18.25
2018-12-20T00:47:43.780Z,18.25
2018-12-20T00:48:43.425Z,18.25
2018-12-20T00:49:43.373Z,18.25
2018-12-20T00:50:43.271Z,18.25
2018-12-20T00:51:43.242Z,18.25
2018-12-20T00:52:43.202Z,18.25
2018-12-20T00:53:43.151Z,18.25
2018-12-20T00:54:43.065Z,18.25
2018-12-20T00:55:43.500Z,18.25
2018-12-20T00:56:43.340Z,18.25
2018-12-20T00:57:44.110Z,18.25
2018-12-20T00:58:43.274Z,18.25
2018-12-20T00:59:43.304Z,18.25
2018-12-20T01:00:43.103Z,18.25
2018-12-20T01:01:43.045Z,18.25
2018-12-20T01:02:43.812Z,18.25
2018-12-20T01:03:43.049Z,18.25
2018-12-20T01:04:43.340Z,18.25
2018-12-20T01:05:43.153Z,18.25
2018-12-20T01:06:43.515Z,18.25
2018-12-20T01:07:43.141Z,18.25
2018-12-20T01:08:43.515Z,18.25
2018-12-20T01:09:43.382Z,18.25
2018-12-20T01:10:42.942Z,18.25
2018-12-20T01:11:43.720Z,18.25
2018-12-20T01:12:42.988Z,18.25
2018-12-20T01:13:43.127Z,18.25
2018-12-20T01:14:46.188Z,18.25
2018-12-20T01:15:43.358Z,18.25
2018-12-20T01:16:43.061Z,18.25
2018-12-20T01:17:42.884Z,18.25
2018-12-20T01:18:43.253Z,18.25
2018-12-20T01:19:42.994Z,18.25
2018-12-20T01:20:43.194Z,18.25
2018-12-20T01:21:43.206Z,18.25
2018-12-20T01:22:43.122Z,18.25
2018-12-20T01:23:43.101Z,18.25
2018-12-20T01:24:43.154Z,18.25
2018-12-20T01:25:43.351Z,18.25
2018-12-20T01:26:43.287Z,18.25
2018-12-20T01:27:43.236Z,18.25
2018-12-20T01:28:43.504Z,18.25
2018-12-20T01:29:43.370Z,18.25
2018-12-20T01:30:43.230Z,18.25
2018-12-20T01:31:43.255Z,18.25
2018-12-20T01:32:43.222Z,18.25
2018-12-20T01:33:43.175Z,18.25
2018-12-20T01:34:43.298Z,18.25
2018-12-20T01:35:43.509Z,18.25
2018-12-20T01:36:43.361Z,18.25
2018-12-20T01:37:43.320Z,18.25
2018-12-20T01:38:43.553Z,18.25
2018-12-20T01:39:43.151Z,18.25
2018-12-20T01:40:43.185Z,18.25
2018-12-20T01:41:42.885Z,18.25
2018-12-20T01:42:42.977Z,18.25
2018-12-20T01:43:43.300Z,18.25
2018-12-20T01:44:43.524Z,18.25
2018-12-20T01:45:43.469Z,18.25
2018-12-20T01:46:43.534Z,18.25
2018-12-20T01:47:43.492Z,18.25
2018-12-20T01:48:43.151Z,18.25
2018-12-20T01:49:43.581Z,18.25
2018-12-20T01:50:43.075Z,18.25
2018-12-20T01:51:43.317Z,18.25
2018-12-20T01:52:43.342Z,18.25
2018-12-20T01:53:43.389Z,18.25
2018-12-20T01:54:43.220Z,18.25
2018-12-20T01:55:43.435Z,18.25
2018-12-20T01:56:43.060Z,18.25
2018-12-20T01:57:42.911Z,18.25
2018-12-20T01:58:43.515Z,18.25
2018-12-20T01:59:43.474Z,18
2018-12-20T02:00:42.970Z,18.25
2018-12-20T02:01:43.603Z,18.25
2018-12-20T02:02:43.561Z,18
2018-12-20T02:03:43.071Z,18
2018-12-20T02:04:43.497Z,18.25
2018-12-20T02:05:43.623Z,18.25
2018-12-20T02:06:43.381Z,18
2018-12-20T02:07:43.264Z,18
2018-12-20T02:08:42.991Z,18
2018-12-20T02:09:43.436Z,18
2018-12-20T02:10:42.976Z,18
2018-12-20T02:11:43.483Z,18
2018-12-20T02:12:43.610Z,18
2018-12-20T02:13:43.270Z,18
2018-12-20T02:14:43.046Z,18
2018-12-20T02:15:43.210Z,18
2018-12-20T02:16:44.046Z,18
2018-12-20T02:17:43.533Z,18
2018-12-20T02:18:43.107Z,18
2018-12-20T02:19:42.954Z,18
2018-12-20T02:20:43.266Z,18
2018-12-20T02:21:43.657Z,18
2018-12-20T02:22:43.177Z,18
2018-12-20T02:23:43.187Z,18
2018-12-20T02:24:43.552Z,18
2018-12-20T02:25:43.798Z,18
2018-12-20T02:26:42.952Z,18
2018-12-20T02:27:43.010Z,18
2018-12-20T02:28:43.641Z,18
2018-12-20T02:29:42.989Z,18
2018-12-20T02:30:43.631Z,18
2018-12-20T02:31:43.646Z,18
2018-12-20T02:32:43.543Z,18
2018-12-20T02:33:44.063Z,18
2018-12-20T02:34:43.234Z,18
2018-12-20T02:35:43.741Z,18
2018-12-20T02:36:43.181Z,18
2018-12-20T02:37:43.683Z,18
2018-12-20T02:38:43.283Z,18
2018-12-20T02:39:43.250Z,18
2018-12-20T02:40:43.111Z,18
2018-12-20T02:41:43.582Z,18
2018-12-20T02:42:43.304Z,18
2018-12-20T02:43:43.444Z,18
2018-12-20T02:44:43.656Z,18
2018-12-20T02:45:43.047Z,18
2018-12-20T02:46:43.237Z,18
2018-12-20T02:47:44.773Z,18
2018-12-20T02:48:42.884Z,18
2018-12-20T02:49:43.991Z,18
2018-12-20T02:50:43.877Z,18
2018-12-20T02:51:42.978Z,18
2018-12-20T02:52:43.470Z,18
2018-12-20T02:53:43.135Z,18
2018-12-20T02:54:43.108Z,18
2018-12-20T02:55:43.131Z,18
2018-12-20T02:56:43.085Z,18
2018-12-20T02:57:43.537Z,18
2018-12-20T02:58:43.528Z,18
2018-12-20T02:59:43.027Z,18
2018-12-20T03:00:43.100Z,18
2018-12-20T03:01:43.890Z,18
2018-12-20T03:02:43.952Z,18
2018-12-20T03:03:42.867Z,18
2018-12-20T03:04:43.382Z,18
2018-12-20T03:05:43.187Z,18
2018-12-20T03:06:42.971Z,18
2018-12-20T03:07:42.992Z,18
2018-12-20T03:08:43.468Z,18
2018-12-20T03:09:43.207Z,18
2018-12-20T03:10:43.530Z,18
2018-12-20T03:11:43.049Z,18
2018-12-20T03:12:42.925Z,18
2018-12-20T03:13:43.202Z,18
2018-12-20T03:14:43.185Z,18
2018-12-20T03:15:43.375Z,18
2018-12-20T03:16:43.591Z,18
2018-12-20T03:17:43.141Z,18
2018-12-20T03:18:43.519Z,18
2018-12-20T03:19:43.789Z,18
2018-12-20T03:20:43.711Z,18
2018-12-20T03:21:43.163Z,18
2018-12-20T03:22:43.127Z,18
2018-12-20T03:23:43.245Z,18
2018-12-20T03:24:42.983Z,18
2018-12-20T03:25:43.590Z,18
2018-12-20T03:26:43.424Z,18
2018-12-20T03:27:43.414Z,18
2018-12-20T03:28:43.575Z,18
2018-12-20T03:29:43.357Z,18
2018-12-20T03:30:43.802Z,18
2018-12-20T03:31:43.217Z,18
2018-12-20T03:32:44.285Z,18
2018-12-20T03:33:44.872Z,18
2018-12-20T03:34:43.442Z,18
2018-12-20T03:35:43.728Z,18
2018-12-20T03:36:43.455Z,18
2018-12-20T03:37:43.588Z,18
2018-12-20T03:38:44.319Z,18
2018-12-20T03:39:43.842Z,18
2018-12-20T03:40:43.320Z,18
2018-12-20T03:41:42.919Z,18
2018-12-20T03:42:43.316Z,17.75
2018-12-20T03:43:43.424Z,18
2018-12-20T03:44:43.115Z,18
2018-12-20T03:45:43.233Z,18
2018-12-20T03:46:42.813Z,17.75
2018-12-20T03:47:43.387Z,18
2018-12-20T03:48:43.277Z,17.75
2018-12-20T03:49:43.119Z,17.75
2018-12-20T03:50:43.264Z,17.75
2018-12-20T03:51:43.193Z,17.75
2018-12-20T03:52:43.397Z,17.75
2018-12-20T03:53:44.056Z,17.75
2018-12-20T03:54:43.226Z,17.75
2018-12-20T03:55:43.394Z,17.75
2018-12-20T03:56:43.459Z,17.75
2018-12-20T03:57:42.996Z,17.75
2018-12-20T03:58:43.351Z,17.75
2018-12-20T03:59:43.739Z,17.75
2018-12-20T04:00:43.271Z,17.75
2018-12-20T04:01:43.009Z,17.75
2018-12-20T04:02:43.279Z,17.75
2018-12-20T04:03:43.116Z,17.75
2018-12-20T04:04:43.776Z,17.75
2018-12-20T04:05:43.200Z,17.75
2018-12-20T04:06:43.061Z,17.75
2018-12-20T04:07:43.445Z,17.75
2018-12-20T04:08:43.269Z,17.75
2018-12-20T04:09:43.339Z,17.75
2018-12-20T04:10:43.650Z,17.75
2018-12-20T04:11:43.449Z,17.75
2018-12-20T04:12:42.954Z,17.75
2018-12-20T04:13:43.560Z,17.75
2018-12-20T04:14:43.849Z,17.75
2018-12-20T04:15:43.281Z,17.75
2018-12-20T04:16:42.848Z,17.75
2018-12-20T04:17:43.513Z,17.75
2018-12-20T04:18:43.426Z,17.75
2018-12-20T04:19:43.374Z,17.75
2018-12-20T04:20:43.720Z,17.75
2018-12-20T04:21:43.782Z,17.75
2018-12-20T04:22:43.107Z,17.75
2018-12-20T04:23:43.518Z,17.75
2018-12-20T04:24:43.286Z,17.75
2018-12-20T04:25:43.754Z,17.75
2018-12-20T04:26:42.819Z,17.75
2018-12-20T04:27:43.824Z,17.75
2018-12-20T04:28:43.787Z,17.75
2018-12-20T04:29:43.410Z,17.75
2018-12-20T04:30:43.487Z,17.75
2018-12-20T04:31:43.405Z,17.75
2018-12-20T04:32:43.349Z,17.75
2018-12-20T04:33:42.870Z,17.75
2018-12-20T04:34:43.460Z,17.75
2018-12-20T04:35:42.938Z,17.75
2018-12-20T04:36:43.157Z,17.75
2018-12-20T04:37:43.349Z,17.75
2018-12-20T04:38:43.533Z,17.75
2018-12-20T04:39:43.053Z,17.75
2018-12-20T04:40:43.637Z,17.75
2018-12-20T04:41:42.990Z,17.75
2018-12-20T04:42:43.517Z,17.75
2018-12-20T04:43:43.346Z,17.75
2018-12-20T04:44:43.657Z,17.75
2018-12-20T04:45:47.169Z,17.75
2018-12-20T04:46:43.105Z,17.75
2018-12-20T04:47:43.569Z,17.75
2018-12-20T04:48:43.060Z,17.75
2018-12-20T04:49:43.764Z,17.75
2018-12-20T04:50:43.007Z,17.75
2018-12-20T04:51:43.398Z,17.75
2018-12-20T04:52:43.222Z,17.75
2018-12-20T04:53:43.233Z,17.75
2018-12-20T04:54:43.032Z,17.75
2018-12-20T04:55:43.656Z,17.75
2018-12-20T04:56:43.196Z,17.75
2018-12-20T04:57:42.915Z,17.75
2018-12-20T04:58:43.774Z,17.75
2018-12-20T04:59:43.021Z,17.75
2018-12-20T05:00:42.827Z,17.75
2018-12-20T05:01:43.855Z,17.75
2018-12-20T05:02:43.664Z,17.75
2018-12-20T05:03:44.081Z,17.75
2018-12-20T05:04:43.424Z,17.75
2018-12-20T05:05:42.873Z,17.75
2018-12-20T05:06:43.968Z,18
2018-12-20T05:07:43.084Z,18
2018-12-20T05:08:43.218Z,18
2018-12-20T05:09:43.757Z,18
2018-12-20T05:10:43.354Z,18
2018-12-20T05:11:44.006Z,18
2018-12-20T05:12:43.362Z,18
2018-12-20T05:13:43.651Z,18
2018-12-20T05:14:43.480Z,18
2018-12-20T05:15:43.409Z,18
2018-12-20T05:16:43.006Z,18
2018-12-20T05:17:43.628Z,18
2018-12-20T05:18:43.267Z,18
2018-12-20T05:19:43.683Z,18
2018-12-20T05:20:43.640Z,18
2018-12-20T05:21:42.813Z,18
2018-12-20T05:22:43.260Z,18
2018-12-20T05:23:43.351Z,18
2018-12-20T05:24:43.477Z,18
2018-12-20T05:25:42.954Z,18
2018-12-20T05:26:44.284Z,18
2018-12-20T05:27:43.591Z,18
2018-12-20T05:28:43.849Z,18.25
2018-12-20T05:29:43.330Z,18.25
2018-12-20T05:30:43.622Z,18.25
2018-12-20T05:31:43.226Z,18.25
2018-12-20T05:32:43.063Z,18.25
2018-12-20T05:33:43.106Z,18.25
2018-12-20T05:34:43.279Z,18.25
2018-12-20T05:35:43.592Z,18.25
2018-12-20T05:36:43.805Z,18.25
2018-12-20T05:37:43.583Z,18.25
2018-12-20T05:38:43.753Z,18.25
2018-12-20T05:39:43.274Z,18.25
2018-12-20T05:40:43.203Z,18.25
2018-12-20T05:41:42.960Z,18.25
2018-12-20T05:42:43.117Z,18.25
2018-12-20T05:43:43.022Z,18.25
2018-12-20T05:44:44.039Z,18.25
2018-12-20T05:45:43.077Z,18.25
2018-12-20T05:46:43.521Z,18.25
2018-12-20T05:47:43.007Z,18.5
2018-12-20T05:48:42.847Z,18.5
2018-12-20T05:49:43.684Z,18.5
2018-12-20T05:50:44.131Z,18.5
2018-12-20T05:51:43.433Z,18.5
2018-12-20T05:52:42.939Z,18.5
2018-12-20T05:53:43.671Z,18.5
2018-12-20T05:54:42.955Z,18.5
2018-12-20T05:55:42.995Z,18.5
2018-12-20T05:56:43.648Z,18.5
2018-12-20T05:57:43.374Z,18.5
2018-12-20T05:58:45.133Z,18.5
2018-12-20T05:59:43.021Z,18.5
2018-12-20T06:00:43.103Z,18.5
2018-12-20T06:01:43.160Z,18.5
2018-12-20T06:02:43.009Z,18.5
2018-12-20T06:03:42.894Z,18.5
2018-12-20T06:04:43.199Z,18.5
2018-12-20T06:05:42.916Z,18.5
2018-12-20T06:06:43.922Z,18.5
2018-12-20T06:07:42.967Z,18.5
2018-12-20T06:08:42.952Z,18.75
2018-12-20T06:09:43.654Z,18.75
2018-12-20T06:10:43.091Z,18.75
2018-12-20T06:11:43.546Z,18.75
2018-12-20T06:12:43.337Z,18.75
2018-12-20T06:13:42.989Z,18.75
2018-12-20T06:14:43.111Z,18.75
2018-12-20T06:15:43.571Z,18.75
2018-12-20T06:16:42.838Z,18.75
2018-12-20T06:17:43.266Z,18.75
2018-12-20T06:18:43.220Z,18.75
2018-12-20T06:19:43.298Z,18.75
2018-12-20T06:20:43.118Z,18.75
2018-12-20T06:21:43.194Z,18.75
2018-12-20T06:22:42.760Z,18.75
2018-12-20T06:23:42.883Z,18.75
2018-12-20T06:24:42.890Z,18.75
2018-12-20T06:25:43.068Z,18.75
2018-12-20T06:26:42.780Z,18.75
2018-12-20T06:27:43.016Z,18.75
2018-12-20T06:28:42.783Z,18.75
2018-12-20T06:29:42.894Z,18.75
2018-12-20T06:30:42.762Z,18.75
2018-12-20T06:31:42.738Z,18.75
2018-12-20T06:32:43.032Z,18.75
2018-12-20T06:33:42.760Z,18.75
2018-12-20T06:34:42.935Z,18.75
2018-12-20T06:35:42.836Z,18.75
2018-12-20T06:36:42.980Z,18.75
2018-12-20T06:37:42.774Z,19
2018-12-20T06:38:42.988Z,19
2018-12-20T06:39:42.962Z,19
2018-12-20T06:40:42.870Z,19
2018-12-20T06:41:42.693Z,19
2018-12-20T06:42:42.938Z,19
2018-12-20T06:43:42.902Z,19
2018-12-20T06:44:42.910Z,19
2018-12-20T06:45:43.361Z,19
2018-12-20T06:46:42.879Z,19
2018-12-20T06:47:43.175Z,19
2018-12-20T06:48:43.178Z,19
2018-12-20T06:49:43.068Z,19
2018-12-20T06:50:43.098Z,19
2018-12-20T06:51:42.916Z,19
2018-12-20T06:52:42.973Z,19
2018-12-20T06:53:42.949Z,19
2018-12-20T06:54:42.875Z,19
2018-12-20T06:55:43.234Z,19
2018-12-20T06:56:42.916Z,19
2018-12-20T06:57:42.752Z,19
2018-12-20T06:58:43.041Z,19
2018-12-20T06:59:42.970Z,19
2018-12-20T07:00:43.102Z,19
2018-12-20T07:01:43.790Z,19
2018-12-20T07:02:43.240Z,19
2018-12-20T07:03:43.283Z,19
2018-12-20T07:04:43.500Z,19
2018-12-20T07:05:43.263Z,19
2018-12-20T07:06:43.094Z,19
2018-12-20T07:07:42.744Z,19
2018-12-20T07:08:43.009Z,19
2018-12-20T07:09:43.142Z,19
2018-12-20T07:10:43.637Z,19
2018-12-20T07:11:43.134Z,19
2018-12-20T07:12:42.998Z,19
2018-12-20T07:13:43.240Z,19
2018-12-20T07:14:43.060Z,19
2018-12-20T07:15:42.881Z,19
2018-12-20T07:16:42.665Z,19.25
2018-12-20T07:17:43.081Z,19.25
2018-12-20T07:18:43.820Z,19.25
2018-12-20T07:19:42.999Z,19
2018-12-20T07:20:42.851Z,19
2018-12-20T07:21:42.724Z,19
2018-12-20T07:22:43.050Z,19
2018-12-20T07:23:43.229Z,19
2018-12-20T07:24:42.763Z,19
2018-12-20T07:25:43.032Z,19
2018-12-20T07:26:43.064Z,19
2018-12-20T07:27:42.969Z,19
2018-12-20T07:28:42.894Z,19
2018-12-20T07:29:43.354Z,19
2018-12-20T07:30:43.013Z,19
2018-12-20T07:31:43.085Z,19
2018-12-20T07:32:43.396Z,19
2018-12-20T07:33:43.081Z,19
2018-12-20T07:34:48.265Z,19
2018-12-20T07:35:43.303Z,19
2018-12-20T07:36:42.834Z,19
2018-12-20T07:37:42.953Z,19
2018-12-20T07:38:42.733Z,19
2018-12-20T07:39:42.912Z,19
2018-12-20T07:40:42.940Z,19
2018-12-20T07:41:42.966Z,19
2018-12-20T07:42:42.739Z,19
2018-12-20T07:43:43.410Z,19
2018-12-20T07:44:42.707Z,19
2018-12-20T07:45:42.914Z,19
2018-12-20T07:46:43.416Z,19
2018-12-20T07:47:43.508Z,19
2018-12-20T07:48:43.781Z,19
2018-12-20T07:49:42.833Z,19
2018-12-20T07:50:43.003Z,19
2018-12-20T07:51:42.906Z,19
2018-12-20T07:52:43.047Z,19
2018-12-20T07:53:42.929Z,19
2018-12-20T07:54:42.926Z,19
2018-12-20T07:55:42.798Z,19
2018-12-20T07:56:42.942Z,19
2018-12-20T07:57:42.960Z,19
2018-12-20T07:58:42.726Z,19
2018-12-20T07:59:43.114Z,19
2018-12-20T08:00:42.619Z,19
2018-12-20T08:01:42.672Z,19
2018-12-20T08:02:43.185Z,19
2018-12-20T08:03:42.852Z,19
2018-12-20T08:04:43.139Z,19
2018-12-20T08:05:42.809Z,19
2018-12-20T08:06:42.927Z,19
2018-12-20T08:07:42.707Z,19
2018-12-20T08:08:43.349Z,19
2018-12-20T08:09:42.743Z,19
2018-12-20T08:10:42.783Z,19
2018-12-20T08:11:42.654Z,19
2018-12-20T08:12:42.783Z,19
2018-12-20T08:13:42.975Z,19
2018-12-20T08:14:42.728Z,19
2018-12-20T08:15:43.094Z,19
2018-12-20T08:16:46.521Z,19
2018-12-20T08:17:42.826Z,19
2018-12-20T08:18:42.793Z,19
2018-12-20T08:19:42.857Z,19
2018-12-20T08:20:43.008Z,19
2018-12-20T08:21:42.830Z,19
2018-12-20T08:22:42.898Z,19
2018-12-20T08:23:43.153Z,19
2018-12-20T08:24:43.151Z,19
2018-12-20T08:25:42.694Z,19
2018-12-20T08:26:43.392Z,19
2018-12-20T08:28:43.017Z,18.75
2018-12-20T08:29:43.533Z,18.75
2018-12-20T08:30:42.826Z,18.75
2018-12-20T08:31:43.533Z,18.75
2018-12-20T08:32:43.001Z,18.75
2018-12-20T08:33:42.907Z,18.75
2018-12-20T08:34:43.522Z,18.75
2018-12-20T08:35:44.221Z,18.75
2018-12-20T08:36:44.407Z,18.75
2018-12-20T08:37:43.250Z,18.75
2018-12-20T08:38:42.972Z,18.75
2018-12-20T08:39:43.457Z,18.75
2018-12-20T08:40:43.212Z,18.75
2018-12-20T08:41:43.402Z,18.75
2018-12-20T08:42:43.959Z,18.75
2018-12-20T08:43:42.874Z,18.75
2018-12-20T08:44:42.875Z,18.75
2018-12-20T08:45:44.028Z,18.75
2018-12-20T08:46:42.920Z,18.75
2018-12-20T08:47:42.905Z,18.75
2018-12-20T08:48:43.217Z,18.75
2018-12-20T08:49:42.901Z,18.75
2018-12-20T08:50:43.283Z,18.75
2018-12-20T08:51:49.517Z,19
2018-12-20T08:52:42.864Z,19
2018-12-20T08:53:42.877Z,19
2018-12-20T08:54:43.063Z,19
2018-12-20T08:55:43.274Z,19
2018-12-20T08:56:43.103Z,19
2018-12-20T08:57:42.920Z,19
2018-12-20T08:58:43.133Z,19
2018-12-20T08:59:42.801Z,19
2018-12-20T09:00:42.763Z,19
2018-12-20T09:01:42.908Z,19
2018-12-20T09:02:43.007Z,19
2018-12-20T09:03:43.091Z,19
2018-12-20T09:04:42.788Z,19
2018-12-20T09:05:43.341Z,19
2018-12-20T09:06:42.732Z,19
2018-12-20T09:07:42.888Z,19
2018-12-20T09:08:42.727Z,19
2018-12-20T09:09:42.784Z,19.25
2018-12-20T09:10:42.872Z,19.25
2018-12-20T09:11:43.452Z,19.25
2018-12-20T09:12:42.895Z,19.25
2018-12-20T09:13:42.747Z,19.25
2018-12-20T09:14:42.891Z,19.25
2018-12-20T09:15:42.759Z,19.25
2018-12-20T09:16:42.771Z,19.25
2018-12-20T09:17:43.252Z,19.25
2018-12-20T09:18:43.234Z,19.25
2018-12-20T09:19:43.136Z,19.25
2018-12-20T09:20:43.364Z,19.25
2018-12-20T09:21:43.101Z,19.25
2018-12-20T09:22:42.953Z,19.25
2018-12-20T09:23:42.960Z,19.25
2018-12-20T09:24:42.728Z,19.25
2018-12-20T09:25:42.761Z,19.25
2018-12-20T09:26:42.763Z,19.25
2018-12-20T09:27:42.897Z,19.25
2018-12-20T09:28:43.135Z,19.25
2018-12-20T09:29:42.986Z,19.25
2018-12-20T09:30:43.814Z,19.25
2018-12-20T09:31:43.123Z,19.25
2018-12-20T09:32:42.794Z,19.25
2018-12-20T09:33:42.772Z,19.25
2018-12-20T09:34:43.133Z,19.25
2018-12-20T09:35:43.522Z,19.25
2018-12-20T09:36:42.781Z,19.25
2018-12-20T09:37:42.683Z,19.25
2018-12-20T09:38:42.949Z,19.25
2018-12-20T09:39:42.760Z,19.25
2018-12-20T09:40:42.808Z,19.5
2018-12-20T09:41:42.995Z,19.5
2018-12-20T09:42:43.166Z,19.5
2018-12-20T09:43:43.261Z,19.5
2018-12-20T09:44:43.059Z,19.5
2018-12-20T09:45:42.889Z,19.5
2018-12-20T09:46:42.750Z,19.5
2018-12-20T09:47:42.945Z,19.5
2018-12-20T09:48:42.767Z,19.5
2018-12-20T09:49:42.685Z,19.5
2018-12-20T09:50:42.781Z,19.5
2018-12-20T09:51:43.272Z,19.5
2018-12-20T09:52:42.809Z,19.5
2018-12-20T09:53:42.824Z,19.5
2018-12-20T09:54:42.716Z,19.5
2018-12-20T09:55:42.784Z,19.5
2018-12-20T09:56:43.006Z,19.5
2018-12-20T09:57:42.706Z,19.5
2018-12-20T09:58:42.981Z,19.5
2018-12-20T09:59:42.825Z,19.5
2018-12-20T10:00:42.936Z,19.5
2018-12-20T10:01:42.871Z,19.5
2018-12-20T10:02:43.150Z,19.5
2018-12-20T10:03:42.960Z,19.5
2018-12-20T10:04:42.833Z,19.5
2018-12-20T10:05:43.386Z,19.5
2018-12-20T10:06:43.102Z,19.5
2018-12-20T10:07:42.826Z,19.5
2018-12-20T10:08:42.753Z,19.5
2018-12-20T10:09:42.777Z,19.5
2018-12-20T10:10:43.590Z,19.5
2018-12-20T10:11:42.869Z,19.5
2018-12-20T10:12:43.004Z,19.5
2018-12-20T10:13:42.859Z,19.5
2018-12-20T10:14:43.028Z,19.5
2018-12-20T10:15:43.241Z,19.5
2018-12-20T10:16:43.042Z,19.5
2018-12-20T10:17:42.708Z,19.5
2018-12-20T10:18:43.157Z,19.5
2018-12-20T10:19:42.858Z,19.5
2018-12-20T10:20:42.919Z,19.5
2018-12-20T10:21:42.761Z,19.5
2018-12-20T10:22:42.908Z,19.5
2018-12-20T10:23:42.774Z,19.5
2018-12-20T10:24:42.844Z,19.5
2018-12-20T10:25:42.894Z,19.5
2018-12-20T10:26:43.421Z,19.5
2018-12-20T10:27:42.989Z,19.5
2018-12-20T10:28:42.720Z,19.5
2018-12-20T10:29:43.356Z,19.5
2018-12-20T10:30:42.949Z,19.5
2018-12-20T10:31:43.053Z,19.5
2018-12-20T10:32:42.978Z,19.5
2018-12-20T10:33:43.389Z,19.5
2018-12-20T10:34:43.590Z,19.5
2018-12-20T10:35:43.027Z,19.5
2018-12-20T10:36:42.653Z,19.5
2018-12-20T10:37:43.786Z,19.5
2018-12-20T10:38:43.990Z,19.5
2018-12-20T10:39:43.670Z,19.5
2018-12-20T10:40:43.518Z,19.5
2018-12-20T10:41:43.126Z,19.75
2018-12-20T10:42:44.012Z,19.75
2018-12-20T10:43:42.874Z,19.75
2018-12-20T10:44:42.863Z,19.75
2018-12-20T10:45:42.735Z,19.75
2018-12-20T10:46:44.357Z,19.75
2018-12-20T10:47:42.682Z,19.75
2018-12-20T10:48:42.797Z,19.75
2018-12-20T10:49:43.534Z,19.75
2018-12-20T10:50:43.186Z,19.75
2018-12-20T10:51:42.910Z,19.75
2018-12-20T10:52:43.397Z,19.75
2018-12-20T10:53:43.113Z,19.75
2018-12-20T10:54:43.093Z,19.75
2018-12-20T10:55:43.226Z,19.75
2018-12-20T10:56:42.763Z,19.75
2018-12-20T10:57:42.773Z,19.75
2018-12-20T10:58:42.856Z,19.75
2018-12-20T10:59:42.724Z,19.75
2018-12-20T11:00:43.188Z,19.75
2018-12-20T11:01:42.873Z,19.75
2018-12-20T11:02:42.807Z,19.75
2018-12-20T11:03:43.075Z,19.75
2018-12-20T11:04:42.800Z,19.75
2018-12-20T11:05:43.160Z,19.75
2018-12-20T11:06:43.535Z,19.75
2018-12-20T11:07:42.846Z,19.75
2018-12-20T11:08:43.126Z,19.75
2018-12-20T11:09:43.406Z,19.75
2018-12-20T11:10:42.714Z,19.75
2018-12-20T11:11:42.753Z,19.75
2018-12-20T11:12:42.675Z,19.75
2018-12-20T11:13:42.747Z,19.75
2018-12-20T11:14:43.484Z,19.75
2018-12-20T11:15:42.993Z,19.75
2018-12-20T11:16:42.791Z,19.75
2018-12-20T11:17:42.592Z,19.75
2018-12-20T11:18:42.876Z,19.75
2018-12-20T11:19:42.708Z,19.75
2018-12-20T11:20:42.735Z,19.75
2018-12-20T11:21:42.879Z,19.75
2018-12-20T11:22:42.753Z,19.75
2018-12-20T11:23:43.762Z,19.75
2018-12-20T11:24:43.036Z,19.75
2018-12-20T11:25:43.161Z,19.75
2018-12-20T11:26:43.459Z,19.75
2018-12-20T11:27:42.870Z,19.75
2018-12-20T11:28:42.945Z,19.75
2018-12-20T11:29:42.802Z,19.75
2018-12-20T11:30:42.790Z,19.75
2018-12-20T11:31:42.918Z,19.75
2018-12-20T11:32:42.908Z,19.75
2018-12-20T11:33:42.691Z,19.75
2018-12-20T11:34:42.820Z,19.75
2018-12-20T11:35:43.126Z,19.75
2018-12-20T11:36:43.211Z,19.75
2018-12-20T11:37:42.996Z,19.75
2018-12-20T11:38:42.745Z,19.75
2018-12-20T11:39:42.923Z,19.75
2018-12-20T11:40:43.004Z,19.75
2018-12-20T11:41:43.011Z,19.75
2018-12-20T11:42:43.434Z,19.75
2018-12-20T11:43:42.648Z,19.75
2018-12-20T11:44:42.892Z,19.75
2018-12-20T11:45:42.862Z,19.75
2018-12-20T11:46:42.837Z,19.75
2018-12-20T11:47:46.512Z,19.75
2018-12-20T11:48:42.981Z,19.75
2018-12-20T11:49:42.868Z,19.75
2018-12-20T11:50:43.018Z,19.75
2018-12-20T11:51:43.020Z,19.75
2018-12-20T11:52:42.779Z,19.75
2018-12-20T11:53:43.229Z,19.75
2018-12-20T11:54:42.775Z,19.75
2018-12-20T11:55:42.849Z,19.75
2018-12-20T11:56:42.752Z,19.75
2018-12-20T11:57:42.985Z,19.75
2018-12-20T11:58:43.053Z,19.75
2018-12-20T11:59:43.177Z,19.75
2018-12-20T12:00:43.128Z,19.75
2018-12-20T12:01:42.745Z,19.75
2018-12-20T12:02:43.141Z,19.75
2018-12-20T12:03:42.966Z,19.75
2018-12-20T12:04:43.215Z,19.75
2018-12-20T12:05:43.026Z,19.75
2018-12-20T12:06:43.203Z,19.75
2018-12-20T12:07:43.071Z,19.75
2018-12-20T12:08:42.799Z,19.75
2018-12-20T12:09:42.796Z,19.75
2018-12-20T12:10:43.130Z,19.75
2018-12-20T12:11:43.053Z,19.75
2018-12-20T12:12:42.885Z,19.75
2018-12-20T12:13:42.789Z,19.75
2018-12-20T12:14:43.311Z,19.75
2018-12-20T12:15:42.992Z,19.75
2018-12-20T12:16:43.753Z,19.75
2018-12-20T12:17:42.838Z,19.75
2018-12-20T12:18:43.419Z,19.75
2018-12-20T12:19:42.772Z,19.75
2018-12-20T12:20:43.347Z,19.75
2018-12-20T12:21:42.766Z,19.75
2018-12-20T12:22:42.692Z,19.75
2018-12-20T12:23:43.458Z,19.75
2018-12-20T12:24:42.786Z,19.75
2018-12-20T12:25:43.061Z,19.75
2018-12-20T12:26:42.874Z,19.75
2018-12-20T12:27:42.973Z,19.75
2018-12-20T12:28:42.970Z,19.75
2018-12-20T12:29:43.382Z,19.75
2018-12-20T12:30:42.568Z,19.75
2018-12-20T12:31:42.771Z,19.75
2018-12-20T12:32:43.152Z,19.75
2018-12-20T12:33:42.706Z,19.75
2018-12-20T12:34:43.058Z,19.75
2018-12-20T12:35:43.577Z,19.75
2018-12-20T12:36:42.830Z,19.75
2018-12-20T12:37:43.085Z,19.75
2018-12-20T12:38:42.840Z,19.75
2018-12-20T12:39:42.605Z,19.75
2018-12-20T12:40:43.070Z,19.75
2018-12-20T12:41:42.821Z,19.75
2018-12-20T12:42:43.118Z,19.75
2018-12-20T12:43:42.614Z,19.75
2018-12-20T12:44:42.786Z,19.75
2018-12-20T12:45:42.587Z,19.75
2018-12-20T12:46:43.102Z,19.75
2018-12-20T12:47:43.693Z,19.75
2018-12-20T12:48:42.922Z,19.75
2018-12-20T12:49:43.134Z,19.75
2018-12-20T12:50:42.832Z,19.75
2018-12-20T12:51:53.586Z,19.75
2018-12-20T12:52:43.454Z,19.75
2018-12-20T12:53:43.011Z,19.75
2018-12-20T12:54:42.954Z,19.75
2018-12-20T12:55:42.830Z,19.75
2018-12-20T12:56:42.767Z,19.75
2018-12-20T12:57:42.739Z,19.75
2018-12-20T12:58:42.924Z,19.75
2018-12-20T12:59:42.733Z,19.75
2018-12-20T13:00:43.006Z,19.75
2018-12-20T13:01:43.438Z,19.75
2018-12-20T13:02:43.038Z,19.75
2018-12-20T13:03:42.739Z,19.75
2018-12-20T13:04:43.920Z,19.75
2018-12-20T13:05:42.966Z,19.75
2018-12-20T13:06:42.780Z,19.75
2018-12-20T13:07:42.613Z,19.75
2018-12-20T13:08:42.741Z,19.75
2018-12-20T13:09:43.063Z,19.75
2018-12-20T13:10:42.864Z,19.75
2018-12-20T13:11:42.895Z,19.75
2018-12-20T13:12:42.618Z,19.75
2018-12-20T13:13:42.807Z,19.75
2018-12-20T13:14:42.795Z,19.75
2018-12-20T13:15:43.425Z,19.75
2018-12-20T13:16:42.906Z,19.75
2018-12-20T13:17:43.237Z,19.75
2018-12-20T13:18:43.026Z,19.75
2018-12-20T13:19:43.001Z,19.75
2018-12-20T13:20:43.257Z,20
2018-12-20T13:21:43.020Z,20
2018-12-20T13:22:42.807Z,20